RDS147 KRDU-KATL
Flight info
| Callsign | RDS147 |
|---|---|
| Flight time | N/A |
| Altitude | 32000 |
| Route | SHPRD4 SHPRD DCT LEAVI OZZZI2 |
| Aircraft | A320/M-VGDW/C |
Departure
| Time | 2026-05-07 02:22 |
|---|---|
| Airport | Raleigh-Durham International Airport (KRDU) |
Arrival
| Time | N/A |
|---|---|
| Airport | Hartsfield Jackson Atlanta International Airport (KATL) |
| Time | Latitude | Longitude | Altitude | Speed | Heading |
|---|---|---|---|---|---|
| 2026-05-07 01:49 | 35.87550 | -78.79659 | 410 ft | 0 kts | 134° |
| 2026-05-07 02:08 | 35.87564 | -78.79677 | 416 ft | 4 kts | 136° |
| 2026-05-07 02:09 | 35.87584 | -78.79699 | 418 ft | 4 kts | 140° |
| 2026-05-07 02:09 | 35.87596 | -78.79711 | 419 ft | 1 kts | 141° |
| 2026-05-07 02:09 | 35.87597 | -78.79713 | 419 ft | 0 kts | 141° |
| 2026-05-07 02:10 | 35.87597 | -78.79712 | 419 ft | 1 kts | 141° |
| 2026-05-07 02:10 | 35.87598 | -78.79705 | 421 ft | 0 kts | 81° |
| 2026-05-07 02:11 | 35.87603 | -78.79703 | 421 ft | 1 kts | 41° |
| 2026-05-07 02:11 | 35.87634 | -78.79670 | 426 ft | 9 kts | 41° |
| 2026-05-07 02:11 | 35.87676 | -78.79621 | 427 ft | 3 kts | 45° |
| 2026-05-07 02:11 | 35.87681 | -78.79615 | 415 ft | 1 kts | 45° |
| 2026-05-07 02:12 | 35.87681 | -78.79614 | 415 ft | 0 kts | 45° |
| 2026-05-07 02:12 | 35.87688 | -78.79605 | 428 ft | 4 kts | 45° |
| 2026-05-07 02:13 | 35.87720 | -78.79566 | 415 ft | 9 kts | 45° |
| 2026-05-07 02:13 | 35.87774 | -78.79499 | 421 ft | 13 kts | 45° |
| 2026-05-07 02:13 | 35.87840 | -78.79415 | 416 ft | 14 kts | 45° |
| 2026-05-07 02:13 | 35.87914 | -78.79322 | 426 ft | 17 kts | 44° |
| 2026-05-07 02:14 | 35.88009 | -78.79209 | 425 ft | 21 kts | 45° |
| 2026-05-07 02:14 | 35.88117 | -78.79074 | 414 ft | 24 kts | 46° |
| 2026-05-07 02:14 | 35.88235 | -78.78924 | 422 ft | 24 kts | 45° |
| 2026-05-07 02:14 | 35.88345 | -78.78785 | 421 ft | 17 kts | 46° |
| 2026-05-07 02:15 | 35.88433 | -78.78678 | 420 ft | 19 kts | 44° |
| 2026-05-07 02:15 | 35.88528 | -78.78561 | 422 ft | 20 kts | 45° |
| 2026-05-07 02:15 | 35.88633 | -78.78431 | 415 ft | 21 kts | 45° |
| 2026-05-07 02:15 | 35.88728 | -78.78314 | 423 ft | 15 kts | 45° |
| 2026-05-07 02:16 | 35.88780 | -78.78249 | 421 ft | 12 kts | 45° |
| 2026-05-07 02:16 | 35.88851 | -78.78161 | 420 ft | 15 kts | 44° |
| 2026-05-07 02:16 | 35.88934 | -78.78061 | 419 ft | 18 kts | 45° |
| 2026-05-07 02:16 | 35.88998 | -78.77916 | 418 ft | 20 kts | 69° |
| 2026-05-07 02:17 | 35.89082 | -78.77796 | 420 ft | 18 kts | 44° |
| 2026-05-07 02:17 | 35.89144 | -78.77720 | 417 ft | 8 kts | 45° |
| 2026-05-07 02:17 | 35.89158 | -78.77703 | 417 ft | 3 kts | 45° |
| 2026-05-07 02:17 | 35.89174 | -78.77684 | 420 ft | 4 kts | 45° |
| 2026-05-07 02:18 | 35.89194 | -78.77660 | 411 ft | 3 kts | 45° |
| 2026-05-07 02:18 | 35.89196 | -78.77657 | 411 ft | 0 kts | 44° |
| 2026-05-07 02:18 | 35.89200 | -78.77652 | 423 ft | 1 kts | 44° |
| 2026-05-07 02:18 | 35.89211 | -78.77643 | 421 ft | 4 kts | 26° |
| 2026-05-07 02:19 | 35.89241 | -78.77655 | 418 ft | 6 kts | 319° |
| 2026-05-07 02:19 | 35.89260 | -78.77676 | 415 ft | 0 kts | 316° |
| 2026-05-07 02:20 | 35.89260 | -78.77677 | 415 ft | 0 kts | 316° |
| 2026-05-07 02:20 | 35.89271 | -78.77689 | 420 ft | 5 kts | 316° |
| 2026-05-07 02:20 | 35.89296 | -78.77719 | 425 ft | 6 kts | 316° |
| 2026-05-07 02:20 | 35.89304 | -78.77729 | 428 ft | 0 kts | 314° |
| 2026-05-07 02:21 | 35.89323 | -78.77753 | 429 ft | 12 kts | 314° |
| 2026-05-07 02:21 | 35.89327 | -78.77878 | 418 ft | 21 kts | 225° |
| 2026-05-07 02:22 | 35.89075 | -78.78184 | 424 ft | 88 kts | 224° |
| 2026-05-07 02:22 | 35.88518 | -78.78870 | 423 ft | 136 kts | 224° |
| 2026-05-07 02:22 | 35.87762 | -78.79799 | 530 ft | 164 kts | 224° |
| 2026-05-07 02:22 | 35.86971 | -78.80764 | 1182 ft | 156 kts | 225° |
| 2026-05-07 02:23 | 35.86234 | -78.81678 | 1878 ft | 144 kts | 225° |
| 2026-05-07 02:23 | 35.85532 | -78.82542 | 2380 ft | 146 kts | 224° |
| 2026-05-07 02:23 | 35.84758 | -78.83480 | 2646 ft | 166 kts | 224° |
| 2026-05-07 02:23 | 35.83886 | -78.84519 | 2959 ft | 182 kts | 225° |
| 2026-05-07 02:24 | 35.82970 | -78.85633 | 3449 ft | 187 kts | 230° |
| 2026-05-07 02:24 | 35.82387 | -78.87128 | 3745 ft | 208 kts | 261° |
| 2026-05-07 02:24 | 35.82403 | -78.88987 | 4201 ft | 227 kts | 269° |
| 2026-05-07 02:24 | 35.82466 | -78.90968 | 4862 ft | 238 kts | 269° |
| 2026-05-07 02:25 | 35.82530 | -78.93049 | 5746 ft | 242 kts | 270° |
| 2026-05-07 02:25 | 35.82592 | -78.95107 | 6587 ft | 246 kts | 271° |
| 2026-05-07 02:25 | 35.82654 | -78.97252 | 7420 ft | 249 kts | 271° |
| 2026-05-07 02:25 | 35.82715 | -78.99397 | 8267 ft | 252 kts | 271° |
| 2026-05-07 02:26 | 35.82776 | -79.01540 | 9076 ft | 255 kts | 270° |
| 2026-05-07 02:26 | 35.82840 | -79.03736 | 9882 ft | 258 kts | 270° |
| 2026-05-07 02:26 | 35.82901 | -79.05986 | 10378 ft | 272 kts | 270° |
| 2026-05-07 02:26 | 35.82965 | -79.08408 | 10606 ft | 293 kts | 270° |
| 2026-05-07 02:27 | 35.83033 | -79.10969 | 11113 ft | 302 kts | 270° |
| 2026-05-07 02:27 | 35.83104 | -79.13579 | 11724 ft | 307 kts | 270° |
| 2026-05-07 02:27 | 35.83175 | -79.16214 | 11942 ft | 308 kts | 270° |
| 2026-05-07 02:27 | 35.83246 | -79.18852 | 11998 ft | 308 kts | 270° |
| 2026-05-07 02:28 | 35.83317 | -79.21483 | 12004 ft | 307 kts | 270° |
| 2026-05-07 02:28 | 35.83385 | -79.24116 | 12010 ft | 307 kts | 270° |
| 2026-05-07 02:28 | 35.83455 | -79.26744 | 12012 ft | 307 kts | 270° |
| 2026-05-07 02:28 | 35.83522 | -79.29378 | 12017 ft | 307 kts | 269° |
| 2026-05-07 02:29 | 35.83396 | -79.32006 | 12018 ft | 307 kts | 264° |
| 2026-05-07 02:29 | 35.83199 | -79.34622 | 12020 ft | 307 kts | 264° |
| 2026-05-07 02:29 | 35.82999 | -79.37236 | 12024 ft | 307 kts | 264° |
| 2026-05-07 02:29 | 35.82800 | -79.39852 | 12027 ft | 307 kts | 264° |
| 2026-05-07 02:30 | 35.82604 | -79.42470 | 12025 ft | 307 kts | 264° |
| 2026-05-07 02:30 | 35.82407 | -79.45087 | 12030 ft | 306 kts | 263° |
| 2026-05-07 02:30 | 35.82205 | -79.47725 | 12492 ft | 311 kts | 263° |
| 2026-05-07 02:30 | 35.82001 | -79.50381 | 13265 ft | 312 kts | 263° |
| 2026-05-07 02:31 | 35.81792 | -79.53052 | 13958 ft | 314 kts | 262° |
| 2026-05-07 02:31 | 35.81392 | -79.55701 | 14575 ft | 316 kts | 258° |
| 2026-05-07 02:31 | 35.80946 | -79.58323 | 15219 ft | 317 kts | 258° |
| 2026-05-07 02:31 | 35.80493 | -79.60986 | 15873 ft | 318 kts | 259° |
| 2026-05-07 02:32 | 35.80038 | -79.63660 | 16500 ft | 320 kts | 259° |
| 2026-05-07 02:32 | 35.79572 | -79.66392 | 17107 ft | 323 kts | 259° |
| 2026-05-07 02:32 | 35.79111 | -79.69106 | 17752 ft | 325 kts | 260° |
| 2026-05-07 02:32 | 35.78653 | -79.71805 | 18386 ft | 327 kts | 260° |
| 2026-05-07 02:33 | 35.78184 | -79.74555 | 18968 ft | 328 kts | 260° |
| 2026-05-07 02:33 | 35.77711 | -79.77316 | 19565 ft | 330 kts | 260° |
| 2026-05-07 02:33 | 35.77235 | -79.80090 | 20167 ft | 332 kts | 260° |
| 2026-05-07 02:33 | 35.76755 | -79.82873 | 20792 ft | 333 kts | 260° |
| 2026-05-07 02:34 | 35.76273 | -79.85668 | 21382 ft | 335 kts | 260° |
| 2026-05-07 02:34 | 35.75788 | -79.88480 | 21949 ft | 336 kts | 260° |
| 2026-05-07 02:34 | 35.75465 | -79.90353 | 22313 ft | 338 kts | 260° |
| 2026-05-07 02:34 | 35.74976 | -79.93187 | 22847 ft | 340 kts | 260° |
| 2026-05-07 02:35 | 35.74482 | -79.96035 | 22996 ft | 340 kts | 260° |
| 2026-05-07 02:35 | 35.73988 | -79.98877 | 23019 ft | 339 kts | 260° |
| 2026-05-07 02:35 | 35.73495 | -80.01722 | 23015 ft | 339 kts | 260° |
| 2026-05-07 02:35 | 35.73006 | -80.04560 | 23010 ft | 339 kts | 260° |
| 2026-05-07 02:36 | 35.72517 | -80.07398 | 23005 ft | 339 kts | 260° |
| 2026-05-07 02:36 | 35.72026 | -80.10242 | 22982 ft | 339 kts | 260° |
| 2026-05-07 02:36 | 35.71533 | -80.13080 | 22987 ft | 339 kts | 260° |
| 2026-05-07 02:36 | 35.71037 | -80.15916 | 22990 ft | 339 kts | 260° |
| 2026-05-07 02:37 | 35.70539 | -80.18742 | 22997 ft | 337 kts | 260° |
| 2026-05-07 02:37 | 35.70042 | -80.21558 | 22994 ft | 336 kts | 260° |
| 2026-05-07 02:37 | 35.69545 | -80.24368 | 23002 ft | 336 kts | 260° |
| 2026-05-07 02:37 | 35.69047 | -80.27176 | 22996 ft | 336 kts | 260° |
| 2026-05-07 02:38 | 35.68551 | -80.29984 | 23000 ft | 336 kts | 260° |
| 2026-05-07 02:38 | 35.68058 | -80.32791 | 22995 ft | 336 kts | 260° |
| 2026-05-07 02:38 | 35.67572 | -80.35567 | 22995 ft | 336 kts | 260° |
| 2026-05-07 02:38 | 35.67079 | -80.38375 | 23003 ft | 336 kts | 260° |
| 2026-05-07 02:39 | 35.66583 | -80.41186 | 23006 ft | 336 kts | 260° |
| 2026-05-07 02:39 | 35.66085 | -80.43995 | 23008 ft | 336 kts | 260° |
| 2026-05-07 02:39 | 35.65583 | -80.46803 | 23010 ft | 336 kts | 258° |
| 2026-05-07 02:39 | 35.64813 | -80.49527 | 23007 ft | 339 kts | 251° |
| 2026-05-07 02:40 | 35.63905 | -80.52204 | 23006 ft | 339 kts | 251° |
| 2026-05-07 02:40 | 35.62999 | -80.54880 | 23015 ft | 338 kts | 251° |
| 2026-05-07 02:40 | 35.62097 | -80.57545 | 23007 ft | 337 kts | 252° |
| 2026-05-07 02:40 | 35.61196 | -80.60210 | 23008 ft | 337 kts | 252° |
| 2026-05-07 02:41 | 35.60298 | -80.62867 | 22987 ft | 337 kts | 252° |
| 2026-05-07 02:41 | 35.59399 | -80.65525 | 22993 ft | 337 kts | 252° |
| 2026-05-07 02:41 | 35.58500 | -80.68184 | 23008 ft | 337 kts | 252° |
| 2026-05-07 02:41 | 35.57599 | -80.70845 | 23010 ft | 337 kts | 252° |
| 2026-05-07 02:42 | 35.56699 | -80.73503 | 23009 ft | 337 kts | 252° |
| 2026-05-07 02:42 | 35.55798 | -80.76159 | 23006 ft | 337 kts | 251° |
| 2026-05-07 02:42 | 35.54892 | -80.78828 | 23276 ft | 340 kts | 251° |
| 2026-05-07 02:42 | 35.53989 | -80.81482 | 23811 ft | 342 kts | 251° |
| 2026-05-07 02:43 | 35.53069 | -80.84179 | 24267 ft | 344 kts | 251° |
| 2026-05-07 02:43 | 35.52141 | -80.86894 | 24689 ft | 346 kts | 251° |
| 2026-05-07 02:43 | 35.51208 | -80.89627 | 25102 ft | 348 kts | 251° |
| 2026-05-07 02:43 | 35.50271 | -80.92378 | 25521 ft | 350 kts | 251° |
| 2026-05-07 02:44 | 35.49330 | -80.95140 | 25961 ft | 351 kts | 251° |
| 2026-05-07 02:44 | 35.48386 | -80.97908 | 26361 ft | 353 kts | 251° |
| 2026-05-07 02:44 | 35.47428 | -81.00700 | 26752 ft | 355 kts | 251° |
| 2026-05-07 02:44 | 35.46466 | -81.03504 | 27142 ft | 358 kts | 251° |
| 2026-05-07 02:45 | 35.45499 | -81.06322 | 27516 ft | 360 kts | 251° |
| 2026-05-07 02:45 | 35.44521 | -81.09163 | 27883 ft | 362 kts | 250° |
| 2026-05-07 02:45 | 35.43538 | -81.12019 | 28243 ft | 365 kts | 250° |
| 2026-05-07 02:45 | 35.42546 | -81.14894 | 28554 ft | 367 kts | 250° |
| 2026-05-07 02:46 | 35.41545 | -81.17803 | 28831 ft | 372 kts | 250° |
| 2026-05-07 02:46 | 35.40535 | -81.20739 | 29148 ft | 375 kts | 250° |
| 2026-05-07 02:46 | 35.39516 | -81.23697 | 29487 ft | 378 kts | 250° |
| 2026-05-07 02:46 | 35.38486 | -81.26677 | 29821 ft | 381 kts | 250° |
| 2026-05-07 02:47 | 35.37451 | -81.29669 | 29991 ft | 381 kts | 250° |
| 2026-05-07 02:47 | 35.36415 | -81.32652 | 29998 ft | 379 kts | 250° |
| 2026-05-07 02:47 | 35.34368 | -81.38542 | 29982 ft | 378 kts | 250° |
| 2026-05-07 02:48 | 35.32302 | -81.44504 | 29962 ft | 378 kts | 250° |
| 2026-05-07 02:48 | 35.30263 | -81.50387 | 29950 ft | 378 kts | 250° |
| 2026-05-07 02:49 | 35.28200 | -81.56296 | 30054 ft | 378 kts | 250° |
| 2026-05-07 02:49 | 35.26131 | -81.62211 | 30054 ft | 378 kts | 250° |